Time;durP1;ratioP1;P1;durP2;ratioP2;P2;SDS_P1;SDS_P2;PMS_P1;PMS_P2;Temp;Humidity;BMP_temperature;BMP_pressure;BME280_temperature;BME280_humidity;BME280_pressure;Samples;Min_cycle;Max_cycle;Signal;HPM_P1;HPM_P2
2023/10/01 00:01:58;;;;;;;;;;;28.90;69.50;;;;;;5114198;28;19908;-67
2023/10/01 00:04:25;;;;;;;;;;;28.90;69.60;;;;;;5114159;28;20300;-72
2023/10/01 00:06:52;;;;;;;;;;;29.10;69.10;;;;;;5113894;28;19912;-68
2023/10/01 00:09:19;;;;;;;;;;;29.10;68.80;;;;;;5114078;28;20368;-70
2023/10/01 00:11:46;;;;;;;;;;;29.20;69.20;;;;;;5113988;28;19912;-70
2023/10/01 00:14:16;;;;;;;;;;;29.30;68.30;;;;;;5113876;28;19914;-69
2023/10/01 00:16:43;;;;;;;;;;;29.50;68.20;;;;;;5113958;28;20253;-74
2023/10/01 00:19:10;;;;;;;;;;;29.50;68.40;;;;;;5113724;28;19942;-72
2023/10/01 00:21:37;;;;;;;;;;;29.70;67.60;;;;;;5113782;28;19908;-70
2023/10/01 00:24:04;;;;;;;;;;;29.80;67.50;;;;;;5113637;28;19908;-69
2023/10/01 00:26:30;;;;;;;;;;;29.90;67.00;;;;;;5113724;28;19954;-69
2023/10/01 00:28:58;;;;;;;;;;;30.00;67.60;;;;;;5113757;28;20320;-69
2023/10/01 00:31:24;;;;;;;;;;;30.20;66.80;;;;;;5113651;28;19914;-71
2023/10/01 00:33:52;;;;;;;;;;;30.20;66.10;;;;;;5113838;28;20368;-69
2023/10/01 00:36:19;;;;;;;;;;;30.20;66.20;;;;;;5113728;28;20261;-68
2023/10/01 00:38:48;;;;;;;;;;;30.30;65.80;;;;;;5112213;28;19955;-70
2023/10/01 00:41:15;;;;;;;;;;;30.30;65.50;;;;;;5113334;28;19908;-71
2023/10/01 00:43:41;;;;;;;;;;;30.40;65.60;;;;;;5113318;28;19908;-67
2023/10/01 00:46:08;;;;;;;;;;;30.40;65.80;;;;;;5113465;28;19914;-71
2023/10/01 00:48:36;;;;;;;;;;;30.60;64.80;;;;;;5113260;28;19920;-72
2023/10/01 00:51:04;;;;;;;;;;;30.70;64.10;;;;;;5113047;28;19908;-70
2023/10/01 00:53:31;;;;;;;;;;;30.80;64.40;;;;;;5113273;28;19908;-69
2023/10/01 00:55:59;;;;;;;;;;;30.90;63.30;;;;;;5113283;28;19992;-73
2023/10/01 00:58:26;;;;;;;;;;;31.00;63.10;;;;;;5113349;27;20325;-73
2023/10/01 01:00:53;;;;;;;;;;;31.00;62.90;;;;;;5112805;28;19934;-70
2023/10/01 01:03:22;;;;;;;;;;;31.20;62.30;;;;;;5113017;28;19908;-69
2023/10/01 01:09:10;;;;;;;;;;;31.40;61.50;;;;;;5108082;28;19915;-70
2023/10/01 01:11:35;;;;;;;;;;;31.60;61.50;;;;;;5113465;28;19947;-70
2023/10/01 01:14:02;;;;;;;;;;;31.80;61.90;;;;;;5112883;28;19930;-71
2023/10/01 01:16:29;;;;;;;;;;;32.00;60.50;;;;;;5113361;28;19907;-69
2023/10/01 01:18:56;;;;;;;;;;;32.00;60.30;;;;;;5113176;28;19912;-67
2023/10/01 01:21:23;;;;;;;;;;;32.30;60.30;;;;;;5112849;28;19907;-69
2023/10/01 01:23:50;;;;;;;;;;;32.50;59.50;;;;;;5112834;28;20356;-69
2023/10/01 01:26:22;;;;;;;;;;;32.60;58.50;;;;;;5111514;28;20006;-67
2023/10/01 01:28:49;;;;;;;;;;;32.80;58.50;;;;;;5112947;28;20272;-68
2023/10/01 01:31:18;;;;;;;;;;;32.90;57.80;;;;;;5112780;28;19947;-68
2023/10/01 01:33:56;;;;;;;;;;;33.00;57.20;;;;;;5112952;28;20352;-69
2023/10/01 01:36:22;;;;;;;;;;;33.10;56.50;;;;;;5112699;28;19912;-67
2023/10/01 01:39:10;;;;;;;;;;;33.20;56.40;;;;;;5112820;28;19908;-69
2023/10/01 01:41:42;;;;;;;;;;;33.40;56.20;;;;;;5112943;28;19958;-69
2023/10/01 01:44:12;;;;;;;;;;;33.70;56.50;;;;;;5113292;28;19915;-70
2023/10/01 01:46:47;;;;;;;;;;;33.90;55.70;;;;;;5112710;28;19907;-70
2023/10/01 01:49:20;;;;;;;;;;;34.00;54.80;;;;;;5112341;28;19926;-66
2023/10/01 01:52:08;;;;;;;;;;;34.10;55.50;;;;;;5112898;28;20368;-68
2023/10/01 01:54:42;;;;;;;;;;;34.20;55.10;;;;;;5112406;28;19933;-69
2023/10/01 01:57:16;;;;;;;;;;;34.40;54.50;;;;;;5112649;28;19908;-69
2023/10/01 01:59:43;;;;;;;;;;;34.40;53.10;;;;;;5112541;28;19958;-67
2023/10/01 02:02:10;;;;;;;;;;;34.40;53.90;;;;;;5112789;28;19908;-71
2023/10/01 02:04:58;;;;;;;;;;;34.60;53.90;;;;;;5112545;28;20394;-68
2023/10/01 02:07:23;;;;;;;;;;;34.60;55.00;;;;;;5112506;28;20391;-70
2023/10/01 02:09:51;;;;;;;;;;;34.80;53.70;;;;;;5112495;28;19964;-68
2023/10/01 02:12:23;;;;;;;;;;;34.90;53.80;;;;;;5112708;28;19908;-68
2023/10/01 02:14:54;;;;;;;;;;;35.00;52.60;;;;;;5116262;28;20021;-67
2023/10/01 02:17:22;;;;;;;;;;;35.00;51.80;;;;;;5116232;28;20010;-70
2023/10/01 02:19:49;;;;;;;;;;;35.20;54.60;;;;;;5114881;28;19915;-70
2023/10/01 02:22:16;;;;;;;;;;;35.60;53.10;;;;;;5116213;28;19912;-68
2023/10/01 02:25:04;;;;;;;;;;;35.50;51.70;;;;;;5116137;28;19957;-70
2023/10/01 02:27:41;;;;;;;;;;;35.50;52.20;;;;;;5116181;28;19908;-70
2023/10/01 02:30:16;;;;;;;;;;;35.60;51.90;;;;;;5115677;28;20372;-69
2023/10/01 02:33:15;;;;;;;;;;;35.60;51.30;;;;;;5114750;28;19907;-67
2023/10/01 02:35:35;;;;;;;;;;;35.70;51.00;;;;;;5115652;28;19941;-68
2023/10/01 02:38:36;;;;;;;;;;;35.90;50.50;;;;;;5116041;28;19908;-69
2023/10/01 02:41:01;;;;;;;;;;;36.40;50.30;;;;;;5115624;28;19908;-69
2023/10/01 02:43:35;;;;;;;;;;;36.90;49.70;;;;;;5115849;27;19961;-73
2023/10/01 02:46:07;;;;;;;;;;;37.50;49.30;;;;;;5115999;28;20303;-68
2023/10/01 02:48:34;;;;;;;;;;;38.20;48.90;;;;;;5115603;27;19919;-69
2023/10/01 02:51:16;;;;;;;;;;;38.90;49.00;;;;;;5115429;28;19990;-71
2023/10/01 02:54:06;;;;;;;;;;;39.60;48.30;;;;;;5115497;28;19914;-70
2023/10/01 02:56:37;;;;;;;;;;;40.80;47.90;;;;;;5115645;28;19908;-72
2023/10/01 02:59:09;;;;;;;;;;;41.20;45.00;;;;;;5115474;28;20383;-72
2023/10/01 03:01:38;;;;;;;;;;;41.70;45.60;;;;;;5115284;28;19914;-69
2023/10/01 03:04:10;;;;;;;;;;;42.10;44.90;;;;;;5114147;28;19914;-68
2023/10/01 03:07:04;;;;;;;;;;;42.60;43.10;;;;;;5115333;28;19966;-72
2023/10/01 03:09:34;;;;;;;;;;;42.40;42.20;;;;;;5114821;28;20397;-70
2023/10/01 03:17:55;;;;;;;;;;;43.20;40.60;;;;;;5114954;28;19996;-70
2023/10/01 03:23:06;;;;;;;;;;;43.00;40.60;;;;;;5114474;28;19911;-74
2023/10/01 03:25:40;;;;;;;;;;;43.10;40.20;;;;;;5114892;28;19908;-70
2023/10/01 03:28:11;;;;;;;;;;;43.60;39.30;;;;;;5114963;28;20385;-69
2023/10/01 03:30:46;;;;;;;;;;;44.00;39.40;;;;;;5114988;28;19930;-70
2023/10/01 03:33:16;;;;;;;;;;;44.60;38.70;;;;;;5114738;28;19982;-72
2023/10/01 03:35:48;;;;;;;;;;;44.70;39.00;;;;;;5114742;28;19912;-72
2023/10/01 03:38:22;;;;;;;;;;;45.20;38.50;;;;;;5114713;28;19908;-69
2023/10/01 03:41:00;;;;;;;;;;;45.70;38.10;;;;;;5114586;28;20374;-69
2023/10/01 03:43:35;;;;;;;;;;;46.00;37.70;;;;;;5114612;28;20384;-71
2023/10/01 03:46:19;;;;;;;;;;;45.00;37.40;;;;;;5114569;28;19921;-70
2023/10/01 03:48:59;;;;;;;;;;;45.00;38.80;;;;;;5113969;28;20288;-69
2023/10/01 03:51:29;;;;;;;;;;;45.50;38.70;;;;;;5114321;28;19908;-72
2023/10/01 03:54:03;;;;;;;;;;;45.50;37.70;;;;;;5114394;28;20320;-68
2023/10/01 03:56:30;;;;;;;;;;;44.90;37.30;;;;;;5114453;28;19908;-71
2023/10/01 03:58:57;;;;;;;;;;;44.40;37.20;;;;;;5114244;28;19912;-70
2023/10/01 04:01:33;;;;;;;;;;;44.60;37.70;;;;;;5114094;28;20360;-72
2023/10/01 04:04:00;;;;;;;;;;;44.80;37.40;;;;;;5112780;28;19908;-71
2023/10/01 04:06:27;;;;;;;;;;;45.20;37.30;;;;;;5114109;28;19908;-71
2023/10/01 04:09:00;;;;;;;;;;;44.80;37.50;;;;;;5114126;28;19912;-69
2023/10/01 04:14:17;;;;;;;;;;;43.70;37.70;;;;;;5102201;28;19908;-69
2023/10/01 04:16:48;;;;;;;;;;;43.80;37.50;;;;;;5114062;28;20010;-68
2023/10/01 04:19:18;;;;;;;;;;;44.20;37.90;;;;;;5113726;28;19915;-70
2023/10/01 04:21:50;;;;;;;;;;;44.40;37.70;;;;;;5113927;28;19908;-68
2023/10/01 04:24:21;;;;;;;;;;;44.50;37.70;;;;;;5113960;28;20003;-69
2023/10/01 04:26:48;;;;;;;;;;;44.90;37.30;;;;;;5113692;28;19908;-70
2023/10/01 04:29:18;;;;;;;;;;;45.30;37.60;;;;;;5113574;28;19915;-67
2023/10/01 04:31:52;;;;;;;;;;;45.40;37.50;;;;;;5113854;28;20968;-68
2023/10/01 04:34:19;;;;;;;;;;;45.90;36.80;;;;;;5113701;28;19908;-67
2023/10/01 04:36:50;;;;;;;;;;;45.50;37.10;;;;;;5112924;28;19953;-67
2023/10/01 04:39:17;;;;;;;;;;;45.10;37.30;;;;;;5113567;28;19947;-70
2023/10/01 04:41:47;;;;;;;;;;;44.90;36.90;;;;;;5113409;28;20279;-70
2023/10/01 04:44:19;;;;;;;;;;;44.00;37.10;;;;;;5113411;28;20423;-68
2023/10/01 04:46:46;;;;;;;;;;;44.20;37.80;;;;;;5113460;27;19912;-69
2023/10/01 04:49:27;;;;;;;;;;;44.10;37.20;;;;;;5113498;28;19954;-70
2023/10/01 04:51:59;;;;;;;;;;;44.80;37.50;;;;;;5113476;28;19907;-68
2023/10/01 04:54:26;;;;;;;;;;;44.50;37.10;;;;;;5113384;28;19960;-69
2023/10/01 04:56:57;;;;;;;;;;;45.10;37.30;;;;;;5113275;28;19958;-69
2023/10/01 04:59:27;;;;;;;;;;;45.10;37.10;;;;;;5113297;28;19908;-69
2023/10/01 05:01:56;;;;;;;;;;;44.80;37.00;;;;;;5112141;28;19907;-69
2023/10/01 05:04:23;;;;;;;;;;;44.20;36.90;;;;;;5113305;28;19908;-71
2023/10/01 05:07:05;;;;;;;;;;;42.80;37.80;;;;;;5113157;28;20004;-68
2023/10/01 05:09:36;;;;;;;;;;;42.00;37.80;;;;;;5112911;28;20352;-69
2023/10/01 05:12:03;;;;;;;;;;;42.00;38.20;;;;;;5113152;28;19915;-70
2023/10/01 05:14:30;;;;;;;;;;;42.70;37.90;;;;;;5113169;28;20383;-68
2023/10/01 05:17:07;;;;;;;;;;;43.60;38.10;;;;;;5113062;28;19919;-71
2023/10/01 05:19:37;;;;;;;;;;;43.80;37.30;;;;;;5112982;28;19937;-68
2023/10/01 05:22:04;;;;;;;;;;;43.60;38.00;;;;;;5113136;28;19908;-69
2023/10/01 05:24:40;;;;;;;;;;;43.40;38.10;;;;;;5113018;28;19915;-69
2023/10/01 05:27:18;;;;;;;;;;;43.60;37.90;;;;;;5113067;28;19916;-69
2023/10/01 05:29:45;;;;;;;;;;;42.60;38.10;;;;;;5113084;28;19916;-70
2023/10/01 05:32:18;;;;;;;;;;;40.90;38.50;;;;;;5112866;28;20447;-69
2023/10/01 05:34:47;;;;;;;;;;;39.70;39.00;;;;;;5112903;28;20289;-67
2023/10/01 05:37:36;;;;;;;;;;;38.80;39.30;;;;;;5112851;28;20423;-68
2023/10/01 05:40:03;;;;;;;;;;;38.00;39.70;;;;;;5112534;28;19958;-68
2023/10/01 05:42:31;;;;;;;;;;;37.50;39.90;;;;;;5113016;28;19908;-70
2023/10/01 05:44:59;;;;;;;;;;;36.90;40.30;;;;;;5113076;28;19950;-73
2023/10/01 05:48:10;;;;;;;;;;;36.60;40.80;;;;;;5114833;28;19908;-69
2023/10/01 05:50:18;;;;;;;;;;;36.40;41.10;;;;;;5113515;28;19920;-68
2023/10/01 05:52:45;;;;;;;;;;;36.30;41.30;;;;;;5116671;27;19908;-71
2023/10/01 05:55:19;;;;;;;;;;;36.20;41.30;;;;;;5116759;28;20257;-72
2023/10/01 05:57:46;;;;;;;;;;;36.40;41.50;;;;;;5116930;28;20276;-71
2023/10/01 06:00:25;;;;;;;;;;;36.40;41.20;;;;;;5116452;28;19915;-69
2023/10/01 06:03:09;;;;;;;;;;;36.30;41.60;;;;;;5116580;28;19953;-71
2023/10/01 06:11:07;;;;;;;;;;;36.40;40.20;;;;;;5103818;28;20417;-70
2023/10/01 06:13:49;;;;;;;;;;;36.40;41.30;;;;;;5116272;28;20340;-73
2023/10/01 06:16:22;;;;;;;;;;;37.00;40.20;;;;;;5116244;28;19908;-68
2023/10/01 06:18:50;;;;;;;;;;;38.30;39.50;;;;;;5116250;28;19908;-69
2023/10/01 06:21:22;;;;;;;;;;;38.50;38.90;;;;;;5116319;28;20006;-69
2023/10/01 06:23:52;;;;;;;;;;;38.20;39.20;;;;;;5116302;28;20357;-70
2023/10/01 06:26:22;;;;;;;;;;;37.60;39.20;;;;;;5116090;28;19915;-69
2023/10/01 06:28:49;;;;;;;;;;;36.90;39.50;;;;;;5116283;28;19916;-69
2023/10/01 06:31:16;;;;;;;;;;;36.50;40.00;;;;;;5115973;28;20287;-70
2023/10/01 06:33:44;;;;;;;;;;;36.20;39.60;;;;;;5116043;28;19912;-69
2023/10/01 06:36:21;;;;;;;;;;;36.00;40.00;;;;;;5116015;28;19908;-71
2023/10/01 06:38:48;;;;;;;;;;;35.70;39.80;;;;;;5116122;28;19952;-68
2023/10/01 06:41:25;;;;;;;;;;;35.50;40.70;;;;;;5115847;28;19915;-69
2023/10/01 06:43:56;;;;;;;;;;;35.40;39.60;;;;;;5116022;28;19904;-69
2023/10/01 06:46:24;;;;;;;;;;;35.30;40.30;;;;;;5115806;28;19946;-68
2023/10/01 06:48:51;;;;;;;;;;;35.20;40.00;;;;;;5115708;28;19923;-68
2023/10/01 06:51:22;;;;;;;;;;;35.30;39.80;;;;;;5115593;28;19912;-69
2023/10/01 06:53:58;;;;;;;;;;;35.50;39.60;;;;;;5115679;28;20003;-71
2023/10/01 06:56:26;;;;;;;;;;;35.80;39.90;;;;;;5115300;27;19935;-69
2023/10/01 07:01:56;;;;;;;;;;;35.60;39.60;;;;;;5115177;28;19956;-71
2023/10/01 07:04:25;;;;;;;;;;;35.50;40.10;;;;;;5115214;28;19915;-70
2023/10/01 07:06:53;;;;;;;;;;;35.20;39.90;;;;;;5115483;28;19908;-69
2023/10/01 07:09:34;;;;;;;;;;;35.00;39.60;;;;;;5113915;27;19923;-70
2023/10/01 07:12:03;;;;;;;;;;;34.90;39.90;;;;;;5115327;28;19908;-71
2023/10/01 07:14:32;;;;;;;;;;;34.60;40.10;;;;;;5115232;28;19908;-72
2023/10/01 07:17:00;;;;;;;;;;;34.50;40.20;;;;;;5115055;28;20283;-72
2023/10/01 07:19:27;;;;;;;;;;;34.30;40.70;;;;;;5115223;28;20280;-71
2023/10/01 07:22:06;;;;;;;;;;;34.20;41.00;;;;;;5115254;28;19908;-68
2023/10/01 07:24:34;;;;;;;;;;;34.00;41.10;;;;;;5115116;28;20393;-69
2023/10/01 07:27:05;;;;;;;;;;;33.90;40.90;;;;;;5114828;28;19908;-70
2023/10/01 07:29:34;;;;;;;;;;;33.80;41.30;;;;;;5114781;28;19919;-71
2023/10/01 07:32:07;;;;;;;;;;;33.70;41.60;;;;;;5114688;28;19908;-69
2023/10/01 07:34:40;;;;;;;;;;;33.60;41.30;;;;;;5114468;28;19912;-69
2023/10/01 07:37:08;;;;;;;;;;;33.50;41.90;;;;;;5113491;28;19916;-69
2023/10/01 07:39:36;;;;;;;;;;;33.30;42.30;;;;;;5114665;28;19942;-70
2023/10/01 07:42:05;;;;;;;;;;;33.20;42.30;;;;;;5114824;28;20344;-73
2023/10/01 07:44:36;;;;;;;;;;;33.00;42.40;;;;;;5114510;28;19912;-72
2023/10/01 07:47:03;;;;;;;;;;;33.00;41.60;;;;;;5114763;28;20375;-71
2023/10/01 07:49:50;;;;;;;;;;;33.10;41.80;;;;;;5114241;28;19965;-69
2023/10/01 07:52:20;;;;;;;;;;;33.10;41.70;;;;;;5114475;27;20369;-70
2023/10/01 07:54:50;;;;;;;;;;;33.00;41.90;;;;;;5113167;28;20767;-72
2023/10/01 07:57:18;;;;;;;;;;;33.00;42.00;;;;;;5114459;28;19960;-71
2023/10/01 07:59:46;;;;;;;;;;;32.90;42.10;;;;;;5114247;28;19908;-71
2023/10/01 08:07:22;;;;;;;;;;;32.70;42.80;;;;;;5114042;28;19912;-70
2023/10/01 08:09:52;;;;;;;;;;;32.60;42.80;;;;;;5114040;27;19916;-72
2023/10/01 08:17:54;;;;;;;;;;;32.30;43.20;;;;;;5101700;28;19919;-70
2023/10/01 08:20:32;;;;;;;;;;;32.20;43.50;;;;;;5113714;28;20295;-69
2023/10/01 08:23:12;;;;;;;;;;;32.10;43.50;;;;;;5113932;28;19953;-69
2023/10/01 08:25:42;;;;;;;;;;;32.00;43.90;;;;;;5113925;28;20271;-71
2023/10/01 08:28:43;;;;;;;;;;;31.80;43.90;;;;;;5113960;28;20423;-72
2023/10/01 08:31:01;;;;;;;;;;;31.70;44.60;;;;;;5113352;28;20288;-70
2023/10/01 08:33:34;;;;;;;;;;;31.60;44.70;;;;;;5113665;28;20004;-69
2023/10/01 08:36:15;;;;;;;;;;;31.40;45.40;;;;;;5113674;28;19951;-70
2023/10/01 08:39:19;;;;;;;;;;;31.30;45.90;;;;;;5113530;28;20411;-69
2023/10/01 08:41:47;;;;;;;;;;;31.20;47.10;;;;;;5113376;28;19929;-70
2023/10/01 08:44:19;;;;;;;;;;;31.00;48.00;;;;;;5113404;28;19931;-73
2023/10/01 08:46:47;;;;;;;;;;;30.90;47.60;;;;;;5113682;28;20396;-70
2023/10/01 08:49:23;;;;;;;;;;;30.70;48.70;;;;;;5113406;28;19920;-68
2023/10/01 08:51:52;;;;;;;;;;;30.60;47.70;;;;;;5113508;28;20368;-71
2023/10/01 08:54:25;;;;;;;;;;;30.40;49.50;;;;;;5112568;28;21377;-72
2023/10/01 08:56:57;;;;;;;;;;;30.40;49.20;;;;;;5113430;28;20307;-70
2023/10/01 08:59:24;;;;;;;;;;;30.20;50.10;;;;;;5113454;28;19964;-69
2023/10/01 09:01:55;;;;;;;;;;;30.10;50.70;;;;;;5113407;28;20315;-71
2023/10/01 09:07:10;;;;;;;;;;;29.90;50.30;;;;;;5113349;28;20425;-71
2023/10/01 09:09:54;;;;;;;;;;;29.80;49.50;;;;;;5113154;28;19916;-69
2023/10/01 09:12:21;;;;;;;;;;;29.70;50.80;;;;;;5113146;28;19908;-68
2023/10/01 09:14:47;;;;;;;;;;;29.70;50.90;;;;;;5113227;28;19908;-69
2023/10/01 09:17:24;;;;;;;;;;;29.60;51.90;;;;;;5112963;28;19950;-68
2023/10/01 09:19:51;;;;;;;;;;;29.50;52.30;;;;;;5113032;28;19995;-70
2023/10/01 09:25:16;;;;;;;;;;;29.20;52.70;;;;;;5117414;28;20310;-72
2023/10/01 09:27:59;;;;;;;;;;;29.10;52.00;;;;;;5117044;28;19953;-68
2023/10/01 09:30:26;;;;;;;;;;;29.00;51.40;;;;;;5117086;28;19927;-71
2023/10/01 09:33:05;;;;;;;;;;;29.00;49.60;;;;;;5117332;28;19908;-75
2023/10/01 09:35:51;;;;;;;;;;;29.00;49.30;;;;;;5117458;27;20283;-67
2023/10/01 09:38:23;;;;;;;;;;;29.00;50.00;;;;;;5117158;28;19978;-68
2023/10/01 09:40:51;;;;;;;;;;;29.10;49.90;;;;;;5116914;28;19953;-74
2023/10/01 09:43:18;;;;;;;;;;;29.00;50.70;;;;;;5116883;28;19908;-70
2023/10/01 09:45:49;;;;;;;;;;;29.00;51.90;;;;;;5117022;28;19908;-70
2023/10/01 09:48:29;;;;;;;;;;;28.90;53.10;;;;;;5116664;28;19920;-69
2023/10/01 09:51:14;;;;;;;;;;;28.80;53.40;;;;;;5117083;28;19951;-68
2023/10/01 09:53:48;;;;;;;;;;;28.60;53.70;;;;;;5116867;28;19908;-68
2023/10/01 09:56:29;;;;;;;;;;;28.50;53.30;;;;;;5116673;28;19908;-68
2023/10/01 09:58:58;;;;;;;;;;;28.50;51.90;;;;;;5116576;28;19916;-70
2023/10/01 10:01:30;;;;;;;;;;;28.50;50.80;;;;;;5116705;28;19981;-69
2023/10/01 10:04:07;;;;;;;;;;;28.70;61.50;;;;;;5116491;28;19908;-69
2023/10/01 10:06:35;;;;;;;;;;;28.30;67.60;;;;;;5116415;28;20310;-71
2023/10/01 10:09:06;;;;;;;;;;;27.70;74.80;;;;;;5116398;28;19915;-70
2023/10/01 10:11:37;;;;;;;;;;;26.90;79.50;;;;;;5116260;28;19964;-71
2023/10/01 10:14:29;;;;;;;;;;;26.00;84.10;;;;;;5116289;28;19908;-71
2023/10/01 10:16:59;;;;;;;;;;;25.40;88.50;;;;;;5114877;28;19915;-68
2023/10/01 10:19:30;;;;;;;;;;;24.90;92.30;;;;;;5116214;28;19947;-72
2023/10/01 10:24:30;;;;;;;;;;;24.20;97.30;;;;;;5115923;28;19915;-69
2023/10/01 10:27:09;;;;;;;;;;;24.00;99.00;;;;;;5116079;28;19907;-69
2023/10/01 10:29:57;;;;;;;;;;;23.70;99.90;;;;;;5115881;28;19922;-69
2023/10/01 10:32:27;;;;;;;;;;;23.60;99.90;;;;;;5116132;28;19908;-70
2023/10/01 10:35:06;;;;;;;;;;;23.30;99.90;;;;;;5114904;28;19943;-68
2023/10/01 10:37:55;;;;;;;;;;;23.10;99.90;;;;;;5115822;28;19908;-71
2023/10/01 10:40:23;;;;;;;;;;;23.00;99.90;;;;;;5115627;28;19966;-72
2023/10/01 10:42:59;;;;;;;;;;;22.80;99.90;;;;;;5116003;28;20044;-73
2023/10/01 10:45:42;;;;;;;;;;;22.60;99.90;;;;;;5116004;27;19907;-72
2023/10/01 10:48:09;;;;;;;;;;;22.60;99.90;;;;;;5115666;28;19911;-70
2023/10/01 10:50:45;;;;;;;;;;;22.40;99.90;;;;;;5114433;28;19923;-71
2023/10/01 10:53:15;;;;;;;;;;;22.30;99.90;;;;;;5115794;28;19915;-74
2023/10/01 10:56:00;;;;;;;;;;;22.20;99.90;;;;;;5115838;28;19908;-70
2023/10/01 10:58:31;;;;;;;;;;;22.20;99.90;;;;;;5115491;28;19912;-68
2023/10/01 11:01:15;;;;;;;;;;;22.10;99.90;;;;;;5115529;28;20374;-70
2023/10/01 11:03:43;;;;;;;;;;;22.10;99.90;;;;;;5115576;28;19990;-69
2023/10/01 11:06:16;;;;;;;;;;;22.00;99.90;;;;;;5115576;28;20279;-70
2023/10/01 11:08:50;;;;;;;;;;;21.90;99.90;;;;;;5115216;28;20284;-69
2023/10/01 11:11:41;;;;;;;;;;;21.90;99.90;;;;;;5115129;28;19911;-69
2023/10/01 11:14:17;;;;;;;;;;;21.90;99.90;;;;;;5115429;28;20007;-70
2023/10/01 11:16:45;;;;;;;;;;;21.80;99.90;;;;;;5115159;28;19908;-67
2023/10/01 11:19:12;;;;;;;;;;;21.70;99.90;;;;;;5115186;28;19991;-72
2023/10/01 11:22:02;;;;;;;;;;;21.60;99.90;;;;;;5115214;28;19908;-70
2023/10/01 11:24:30;;;;;;;;;;;21.60;99.90;;;;;;5112044;28;19976;-72
2023/10/01 11:27:22;;;;;;;;;;;21.60;99.90;;;;;;5114931;28;20183;-72
2023/10/01 11:30:24;;;;;;;;;;;21.50;99.90;;;;;;5114960;28;19950;-69
2023/10/01 11:35:33;;;;;;;;;;;21.40;99.90;;;;;;5114766;28;19919;-70
2023/10/01 11:38:09;;;;;;;;;;;21.40;99.90;;;;;;5114929;28;19961;-70
2023/10/01 11:43:27;;;;;;;;;;;21.20;99.90;;;;;;5115058;28;19953;-72
2023/10/01 11:46:24;;;;;;;;;;;21.20;99.90;;;;;;5114258;28;19908;-72
2023/10/01 11:49:04;;;;;;;;;;;21.10;99.90;;;;;;5114529;28;19927;-70
2023/10/01 11:51:48;;;;;;;;;;;21.00;99.90;;;;;;5114664;28;20279;-70
2023/10/01 11:54:18;;;;;;;;;;;21.00;99.90;;;;;;5114611;28;19998;-67
2023/10/01 11:56:46;;;;;;;;;;;21.00;99.90;;;;;;5114561;28;19961;-71
2023/10/01 11:59:20;;;;;;;;;;;21.00;99.90;;;;;;5114602;28;20367;-68
2023/10/01 12:01:48;;;;;;;;;;;20.80;99.90;;;;;;5114302;28;19926;-70
2023/10/01 12:04:21;;;;;;;;;;;20.80;99.90;;;;;;5114548;28;19961;-71
2023/10/01 12:06:49;;;;;;;;;;;20.90;99.90;;;;;;5114394;28;19908;-68
2023/10/01 12:09:18;;;;;;;;;;;20.90;99.90;;;;;;5114247;28;19923;-66
2023/10/01 12:12:08;;;;;;;;;;;20.90;99.90;;;;;;5114122;28;20065;-72
2023/10/01 12:14:32;;;;;;;;;;;21.00;99.90;;;;;;5113720;28;19912;-70
2023/10/01 12:17:01;;;;;;;;;;;21.00;99.90;;;;;;5114108;28;19960;-68
2023/10/01 12:19:29;;;;;;;;;;;20.90;99.90;;;;;;5113777;28;19915;-71
2023/10/01 12:22:09;;;;;;;;;;;20.90;99.90;;;;;;5113942;28;19915;-70
2023/10/01 12:24:45;;;;;;;;;;;20.90;99.90;;;;;;5113920;28;19907;-71
2023/10/01 12:27:37;;;;;;;;;;;20.90;99.90;;;;;;5112538;28;20368;-72
2023/10/01 12:29:58;;;;;;;;;;;20.70;99.90;;;;;;5113693;28;19916;-68
2023/10/01 12:32:37;;;;;;;;;;;20.80;99.90;;;;;;5113943;28;19908;-74
2023/10/01 12:35:18;;;;;;;;;;;20.80;99.90;;;;;;5113719;28;19914;-70
2023/10/01 12:37:45;;;;;;;;;;;20.70;99.90;;;;;;5113681;28;19914;-69
2023/10/01 12:40:16;;;;;;;;;;;20.70;99.90;;;;;;5113509;28;19934;-72
2023/10/01 12:42:50;;;;;;;;;;;20.70;99.90;;;;;;5113570;28;20287;-71
2023/10/01 12:45:20;;;;;;;;;;;20.60;99.90;;;;;;5113765;28;19943;-73
2023/10/01 12:47:52;;;;;;;;;;;20.60;99.90;;;;;;5113567;28;20445;-68
2023/10/01 12:50:28;;;;;;;;;;;20.50;99.90;;;;;;5113333;28;19916;-74
2023/10/01 12:55:51;;;;;;;;;;;20.40;99.90;;;;;;5113730;28;19933;-68
2023/10/01 12:58:21;;;;;;;;;;;20.40;99.90;;;;;;5113449;28;19912;-69
2023/10/01 13:00:49;;;;;;;;;;;20.40;99.90;;;;;;5113239;28;19915;-73
2023/10/01 13:03:22;;;;;;;;;;;20.40;99.90;;;;;;5113313;28;19915;-68
2023/10/01 13:05:50;;;;;;;;;;;20.40;99.90;;;;;;5113525;28;19908;-71
2023/10/01 13:08:27;;;;;;;;;;;20.30;99.90;;;;;;5113581;28;20253;-69
2023/10/01 13:10:54;;;;;;;;;;;20.40;99.90;;;;;;5113058;28;19916;-72
2023/10/01 13:13:29;;;;;;;;;;;20.30;99.90;;;;;;5113555;28;19908;-72
2023/10/01 13:16:00;;;;;;;;;;;20.30;99.90;;;;;;5113339;28;19907;-71
2023/10/01 13:18:31;;;;;;;;;;;20.30;99.90;;;;;;5113376;28;19994;-70
2023/10/01 13:20:59;;;;;;;;;;;20.30;99.90;;;;;;5113064;28;19943;-68
2023/10/01 13:23:31;;;;;;;;;;;20.30;99.90;;;;;;5113160;28;19915;-70
2023/10/01 13:26:09;;;;;;;;;;;20.20;99.90;;;;;;5113156;28;19907;-70
2023/10/01 13:28:51;;;;;;;;;;;20.20;99.90;;;;;;5113160;28;19907;-73
2023/10/01 13:34:09;;;;;;;;;;;20.20;99.90;;;;;;5113278;28;19908;-70
2023/10/01 13:40:10;;;;;;;;;;;20.20;99.90;;;;;;5113047;28;19960;-73
2023/10/01 14:09:48;;;;;;;;;;;20.00;99.90;;;;;;5116673;28;20402;-72
2023/10/01 14:12:41;;;;;;;;;;;19.90;99.90;;;;;;5116495;28;19915;-65
2023/10/01 14:15:02;;;;;;;;;;;19.90;99.90;;;;;;5116469;27;19976;-70
2023/10/01 14:17:29;;;;;;;;;;;19.80;99.90;;;;;;5116575;28;19907;-73
2023/10/01 14:19:55;;;;;;;;;;;19.80;99.90;;;;;;5116418;28;19969;-69
2023/10/01 14:22:22;;;;;;;;;;;19.80;99.90;;;;;;5116766;28;20302;-68
2023/10/01 14:24:49;;;;;;;;;;;19.70;99.90;;;;;;5116366;28;19908;-73
2023/10/01 14:27:26;;;;;;;;;;;19.70;99.90;;;;;;5116637;28;19908;-69
2023/10/01 14:32:39;;;;;;;;;;;19.70;99.90;;;;;;5116087;28;19953;-70
2023/10/01 14:35:14;;;;;;;;;;;19.70;99.90;;;;;;5116065;27;19914;-72
2023/10/01 14:38:06;;;;;;;;;;;19.70;99.90;;;;;;5116145;28;19908;-71
2023/10/01 14:40:32;;;;;;;;;;;19.70;99.90;;;;;;5115638;28;20020;-68
2023/10/01 14:43:03;;;;;;;;;;;19.80;99.90;;;;;;5115986;28;19908;-69
2023/10/01 14:45:33;;;;;;;;;;;19.70;99.90;;;;;;5115838;28;20275;-70
2023/10/01 14:48:06;;;;;;;;;;;19.70;99.90;;;;;;5115751;28;19965;-72
2023/10/01 14:50:42;;;;;;;;;;;19.70;99.90;;;;;;5115635;28;19915;-74
2023/10/01 14:53:12;;;;;;;;;;;19.70;99.90;;;;;;5115756;28;19907;-71
2023/10/01 14:55:42;;;;;;;;;;;19.80;99.90;;;;;;5115730;28;19915;-73
2023/10/01 14:58:15;;;;;;;;;;;19.80;99.90;;;;;;5115643;28;19915;-70
2023/10/01 15:00:54;;;;;;;;;;;19.90;99.90;;;;;;5115349;28;19908;-71
2023/10/01 15:03:22;;;;;;;;;;;19.90;99.90;;;;;;5115687;27;19953;-71
2023/10/01 15:05:50;;;;;;;;;;;19.80;99.90;;;;;;5115491;28;19907;-71
2023/10/01 15:08:17;;;;;;;;;;;19.80;99.90;;;;;;5115522;28;20326;-73
2023/10/01 15:10:50;;;;;;;;;;;19.80;99.90;;;;;;5115353;28;19972;-69
2023/10/01 15:13:17;;;;;;;;;;;19.80;99.90;;;;;;5115438;28;19908;-72
2023/10/01 15:15:44;;;;;;;;;;;19.80;99.90;;;;;;5115463;28;20276;-70
2023/10/01 15:18:20;;;;;;;;;;;19.80;99.90;;;;;;5115380;28;19949;-72
2023/10/01 15:20:54;;;;;;;;;;;19.80;99.90;;;;;;5114615;28;19908;-74
2023/10/01 15:23:22;;;;;;;;;;;19.80;99.90;;;;;;5115250;28;20364;-74
2023/10/01 15:25:49;;;;;;;;;;;19.70;99.90;;;;;;5114917;28;19998;-72
2023/10/01 15:28:15;;;;;;;;;;;19.70;99.90;;;;;;5115138;28;19908;-70
2023/10/01 15:30:45;;;;;;;;;;;19.70;99.90;;;;;;5114873;27;19968;-75
2023/10/01 15:33:20;;;;;;;;;;;19.80;99.90;;;;;;5115090;28;19992;-70
2023/10/01 15:35:53;;;;;;;;;;;19.70;99.90;;;;;;5115074;28;19949;-67
2023/10/01 15:38:33;;;;;;;;;;;19.70;99.90;;;;;;5114763;28;19912;-72
2023/10/01 15:41:00;;;;;;;;;;;19.70;99.90;;;;;;5114918;28;20493;-72
2023/10/01 15:43:26;;;;;;;;;;;19.60;99.90;;;;;;5114818;28;19908;-71
2023/10/01 15:46:11;;;;;;;;;;;19.50;99.90;;;;;;5114828;28;19912;-67
2023/10/01 15:48:56;;;;;;;;;;;19.50;99.90;;;;;;5114546;28;19920;-67
2023/10/01 15:51:25;;;;;;;;;;;19.50;99.90;;;;;;5114378;28;19912;-71
2023/10/01 15:53:53;;;;;;;;;;;19.60;99.90;;;;;;5114627;28;20002;-73
2023/10/01 15:56:30;;;;;;;;;;;19.60;99.90;;;;;;5114029;28;19907;-70
2023/10/01 15:58:57;;;;;;;;;;;19.60;99.90;;;;;;5114676;28;19908;-73
2023/10/01 16:01:24;;;;;;;;;;;19.50;99.90;;;;;;5114313;28;19911;-71
2023/10/01 16:03:53;;;;;;;;;;;19.50;99.90;;;;;;5114347;28;19943;-73
2023/10/01 16:06:21;;;;;;;;;;;19.50;99.90;;;;;;5114600;28;19998;-71
2023/10/01 16:08:48;;;;;;;;;;;19.50;99.90;;;;;;5114423;27;20284;-72
2023/10/01 16:11:17;;;;;;;;;;;19.50;99.90;;;;;;5114281;28;19955;-72
2023/10/01 16:13:53;;;;;;;;;;;19.50;99.90;;;;;;5114001;28;20360;-68